Detall de PIREP

Printer-friendly versionPDF version

[2011/05/23 09:02:00]
Flight IATA:CT1005
Pilot Number:011
Company ICAO:CAT
Aircraft Type:F28/A
PAX:85
Departing Airport: LPPR
Destination Airport: LFBD
Alternate Airport:LFBO
Online: VATSIM
Route:IBERO DCT ADORO UL155 ZMR UN976 DGO UL176 SSN UP181 ENSAC
Flight Level:F300
No Slew and time accel
No pause
Crash detect
Detect pilot in Cockpit between each 30 and 45 minutes
09:02 Zero fuel Weight: 60656 Lbs, Fuel Weight: 10822 Lbs
09:02 VATSIM:LPPR 230830Z VRB03KT 5000 BR OVC003 16/15 Q1022
09:02 VATSIM:LFBD 230830Z 10006KT 060V160 CAVOK 20/10 Q1025 NOSIG
09:06 Parking Brakes off
09:19 Take-off
09:19 Take off Weight: 70922 Lbs
09:19 Wind: 226º @ 003 Knots Heading: 170º
09:19 POS N41º 14´ 49´´ W008º 40´ 51´´
09:19 Gear Up: 157 Knots
09:19 Flaps:2 at 157 Knots
09:20 Flaps:1 at 194 Knots
09:20 Flaps:0 at 199 Knots
09:34 Wind:282º@002 Knots Heading: 083º Ground Speed: 387 Knots Altitude 28162 ft
09:35 TOC
09:35 Fuel Weight: 8067 Lb
09:49 Wind:192º@000 Knots Heading: 066º Ground Speed: 460 Knots Altitude 30351 ft
10:04 Wind:270º@000 Knots Heading: 041º Ground Speed: 457 Knots Altitude 30321 ft
10:06 TOD
10:06 Fuel Weight: 5573 Lb
10:19 Wind:107º@016 Knots Heading: 041º Ground Speed: 342 Knots Altitude 11164 ft
10:29 Flaps:1 at 205 Knots
10:30 Flaps:2 at 196 Knots
10:32 Flaps:3 at 181 Knots
10:33 Gear Down: 176 Knots
10:33 Flaps:4 at 169 Knots
10:34 Wind:104º@005 Knots Heading: 223º Ground Speed: 150 Knots Altitude 1797 ft
10:34 Flaps:5 at 143 Knots
10:38 TouchDown:Rate -199 ft/min Speed: 111 Knots
10:38 VATSIM:LFBD 231000Z 10005KT 040V160 CAVOK 23/10 Q1024 NOSIG
10:38 Land
10:38 Wind:104º@005 Knots
10:38 Heading: 226º
10:38 Flight Duration: 01:19
10:38 Landing Weight: 64664 Lbs
10:38 POS N44º 49´ 41´´ W000º 42´ 56´´
10:41 Parking brakes on
10:41 Block to Block Duration: 01:35
10:41 Final Fuel: 3875 Lbls
10:41 Spent Fuel: 6946 Lbls
10:41 Flight Length: 210 NM
10:41 TOD Land Length: 73 NM

Exportar CSV

Powered by Drupal - Modified by Danger4k